Mckinley Sea — WDE5024 — position and weather

sailwx.info

Track history (hours):
 
Tides and Currents Weather Stations Pressure Air Temp Water Temp Dewpoint Dewpoint Depression Visibility Wind Speed Wind Dir Waves Ship Positions

Mckinley Sea

Owner: Kirby Offshore Marine, LLC, Staten Island, NY. More information available from US FCC via Universal Licensing System and Coast Guard Vessel Documentation Center.

Last reported at 2016-Aug-26 17:31 UTC. Time now 2016-Aug-28 02:19 UTC.
Position N 40°29' W 074°06'.

Length 41 m; draft 6 m.

Type: . MMSI: 367360980.

Date/timePositionNaut miles runAvg speedWind from/ knotsBaromVisibWave heightAir tempDewpointWater temp
2016-Aug-26 17:31N 40°29' W 074°06'5 5.5
2016-Aug-26 16:33N 40°34' W 074°02'2 1.8
2016-Aug-26 15:31N 40°35' W 074°01'0 0.0
2016-Aug-26 14:33N 40°35' W 074°01'0 0.0
2016-Aug-26 13:33N 40°35' W 074°01'0 0.0
2016-Aug-26 12:33N 40°35' W 074°01'0 0.0
2016-Aug-26 11:33N 40°35' W 074°01'0 0.0
2016-Aug-26 10:33N 40°35' W 074°01'0 0.2
2016-Aug-26 09:33N 40°35' W 074°01'3 3.2
2016-Aug-26 08:33N 40°38' W 074°03'0 0.0
2016-Aug-26 07:31N 40°38' W 074°03'0 0.0
2016-Aug-26 06:31N 40°38' W 074°03'0 0.0
2016-Aug-26 04:28N 40°38' W 074°03'0 0.1
2016-Aug-26 03:31N 40°38' W 074°03'0 0.1
2016-Aug-26 02:31N 40°38' W 074°03'0 0.0
2016-Aug-26 01:31N 40°38' W 074°03'0 0.0
2016-Aug-26 00:31N 40°38' W 074°03'0 0.1
2016-Aug-25 23:31N 40°38' W 074°03'0 0.0
2016-Aug-25 22:28N 40°38' W 074°03'0 0.1
2016-Aug-25 21:33N 40°38' W 074°03'0 0.1
2016-Aug-25 20:33N 40°38' W 074°03'0 0.0
2016-Aug-25 19:33N 40°38' W 074°03'0 0.0
2016-Aug-25 18:33N 40°38' W 074°03'0 0.0
2016-Aug-25 17:33N 40°38' W 074°03'0 0.0
2016-Aug-25 16:33N 40°38' W 074°03'0 0.0
2016-Aug-25 15:34N 40°38' W 074°03'0 0.0
2016-Aug-25 14:33N 40°38' W 074°03'2 2.0
2016-Aug-25 13:33N 40°36' W 074°03'0 0.1
2016-Aug-25 12:25N 40°37' W 074°03'0 0.0
2016-Aug-25 11:31N 40°37' W 074°03'0 0.0
2016-Aug-25 10:28N 40°37' W 074°03'0 0.0
2016-Aug-25 09:28N 40°37' W 074°03'0 0.0
2016-Aug-25 08:31N 40°37' W 074°03'0 0.2
2016-Aug-25 07:31N 40°37' W 074°03'0 0.0
2016-Aug-25 06:25N 40°37' W 074°03'0 0.0
2016-Aug-25 04:33N 40°37' W 074°03'0 0.0
2016-Aug-25 03:18N 40°37' W 074°03'0 0.2
2016-Aug-25 02:34N 40°37' W 074°03'0 0.1
2016-Aug-25 01:31N 40°37' W 074°03'0 0.0
2016-Aug-25 00:30N 40°37' W 074°03'0 0.0
2016-Aug-24 23:33N 40°37' W 074°03'0 0.0
2016-Aug-24 22:09N 40°37' W 074°03'0 0.1
2016-Aug-24 21:28N 40°37' W 074°03'0 0.1
2016-Aug-24 20:28N 40°37' W 074°03'0 0.1
2016-Aug-24 19:33N 40°37' W 074°03'0 0.0
2016-Aug-24 18:27N 40°37' W 074°03'0 0.0
2016-Aug-24 16:24N 40°37' W 074°03'0 0.0
2016-Aug-24 15:30N 40°37' W 074°03'0 0.1
2016-Aug-24 14:33N 40°37' W 074°03'0 0.2
2016-Aug-24 13:24N 40°37' W 074°03'0 0.1
2016-Aug-24 12:30N 40°37' W 074°03'0 0.0
2016-Aug-24 11:34N 40°37' W 074°03'0 0.0
2016-Aug-24 10:30N 40°37' W 074°03'0 0.0
2016-Aug-24 09:30N 40°37' W 074°03'0 0.1
2016-Aug-24 08:33N 40°37' W 074°03'1 1.2
2016-Aug-24 07:33N 40°38' W 074°03'2 2.2
2016-Aug-24 06:33N 40°40' W 074°02'0 0.0
2016-Aug-24 04:32N 40°40' W 074°02'0 0.0
2016-Aug-24 03:32N 40°40' W 074°02'0 0.1
2016-Aug-24 02:32N 40°40' W 074°03'0 0.2
2016-Aug-24 01:32N 40°40' W 074°03'0 0.1
2016-Aug-24 00:32N 40°40' W 074°03'0 0.0
2016-Aug-23 23:32N 40°40' W 074°03'0 0.0
2016-Aug-23 22:32N 40°40' W 074°03'0 0.0
2016-Aug-23 21:32N 40°40' W 074°03'5 4.7
2016-Aug-23 20:33N 40°39' W 074°09'1 0.3
2016-Aug-23 16:33N 40°39' W 074°07'4 3.6
2016-Aug-23 15:32N 40°40' W 074°02'0 0.1
2016-Aug-23 14:32N 40°40' W 074°02'0 0.1
2016-Aug-23 13:32N 40°40' W 074°03'0 0.0
2016-Aug-23 12:32N 40°40' W 074°03'0 0.0
2016-Aug-23 11:32N 40°40' W 074°03'0 0.0
2016-Aug-23 10:32N 40°40' W 074°03'0 0.0
2016-Aug-23 09:32N 40°40' W 074°03'0 0.0
2016-Aug-23 08:32N 40°40' W 074°03'0 0.0
2016-Aug-23 07:32N 40°40' W 074°03'0 0.1
2016-Aug-23 06:32N 40°40' W 074°02'0 0.1
2016-Aug-23 05:32N 40°40' W 074°02'0 0.0
2016-Aug-23 04:32N 40°40' W 074°02'0 0.0
2016-Aug-23 03:32N 40°40' W 074°02'0 0.2
2016-Aug-23 02:32N 40°40' W 074°02'0 0.1
2016-Aug-23 01:32N 40°40' W 074°02'0 0.0
2016-Aug-23 00:29N 40°40' W 074°03'0 0.0
2016-Aug-22 23:32N 40°40' W 074°03'0 0.0
2016-Aug-22 22:32N 40°40' W 074°03'0 0.0
2016-Aug-22 21:32N 40°40' W 074°03'0 0.0
2016-Aug-22 20:32N 40°40' W 074°03'0 0.0
2016-Aug-22 19:32N 40°40' W 074°03'0 0.0
2016-Aug-22 18:32N 40°40' W 074°03'0 0.0
2016-Aug-22 17:32N 40°40' W 074°02'0 0.1
2016-Aug-22 16:29N 40°40' W 074°02'0 0.1
2016-Aug-22 15:32N 40°40' W 074°02'0 0.0
2016-Aug-22 14:29N 40°40' W 074°03'0 0.0
2016-Aug-22 13:32N 40°40' W 074°02'0 0.0
2016-Aug-22 12:32N 40°40' W 074°02'0 0.1
2016-Aug-22 11:32N 40°40' W 074°03'0 0.0
2016-Aug-22 10:32N 40°40' W 074°03'0 0.0
2016-Aug-22 09:32N 40°40' W 074°03'0 0.0
2016-Aug-22 08:32N 40°40' W 074°03'0 0.0
2016-Aug-22 07:32N 40°40' W 074°03'0 0.0
2016-Aug-22 06:31N 40°40' W 074°02'0 0.1
2016-Aug-22 05:32N 40°40' W 074°02'0 0.1
2016-Aug-22 04:31N 40°40' W 074°02'0 0.0
2016-Aug-22 03:31N 40°40' W 074°02'0 0.0
2016-Aug-22 02:32N 40°40' W 074°02'0 0.0
2016-Aug-22 01:31N 40°40' W 074°03'0 0.0
2016-Aug-22 00:31N 40°40' W 074°03'0 0.0
2016-Aug-21 23:32N 40°40' W 074°03'0 0.1
2016-Aug-21 22:31N 40°40' W 074°03'0 0.1
2016-Aug-21 21:32N 40°40' W 074°03'0 0.1
2016-Aug-21 20:31N 40°40' W 074°03'0 0.1
2016-Aug-21 19:28N 40°40' W 074°03'0 0.1
2016-Aug-21 18:25N 40°40' W 074°03'0 0.0
2016-Aug-21 17:32N 40°40' W 074°03'0 0.1
2016-Aug-21 16:31N 40°40' W 074°03'0 0.0
2016-Aug-21 15:31N 40°40' W 074°03'0 0.0
2016-Aug-21 14:31N 40°40' W 074°03'0 0.0
2016-Aug-21 13:32N 40°40' W 074°03'0 0.1
2016-Aug-21 12:31N 40°40' W 074°03'0 0.1
2016-Aug-21 11:28N 40°40' W 074°03'0 0.1
2016-Aug-21 10:25N 40°40' W 074°03'0 0.0
2016-Aug-21 09:31N 40°40' W 074°03'0 0.0
2016-Aug-21 08:31N 40°40' W 074°03'0 0.0
2016-Aug-21 07:28N 40°40' W 074°03'0 0.1
2016-Aug-21 06:31N 40°40' W 074°03'0 0.1
2016-Aug-21 05:31N 40°40' W 074°03'0 0.1
2016-Aug-21 04:31N 40°40' W 074°03'0 0.0
2016-Aug-21 03:28N 40°40' W 074°03'0 0.0
2016-Aug-21 02:31N 40°40' W 074°03'0 0.0
2016-Aug-21 01:31N 40°40' W 074°03'0 0.0
2016-Aug-21 00:31N 40°40' W 074°03'0 0.0
2016-Aug-20 23:28N 40°40' W 074°03'0 0.0
2016-Aug-20 22:31N 40°40' W 074°03'0 0.1
2016-Aug-20 21:28N 40°40' W 074°03'0 0.1
2016-Aug-20 20:31N 40°40' W 074°03'0 0.0
2016-Aug-20 19:31N 40°40' W 074°03'0 0.0
2016-Aug-20 18:28N 40°40' W 074°03'0 0.1
2016-Aug-20 17:31N 40°40' W 074°03'0 0.1
2016-Aug-20 16:31N 40°40' W 074°03'0 0.0
2016-Aug-20 15:31N 40°40' W 074°02'0 0.0
2016-Aug-20 14:31N 40°40' W 074°03'0 0.0
2016-Aug-20 13:31N 40°40' W 074°02'0 0.1
2016-Aug-20 12:31N 40°40' W 074°03'0 0.1
2016-Aug-20 11:31N 40°40' W 074°03'0 0.1
2016-Aug-20 10:31N 40°40' W 074°03'0 0.0
2016-Aug-20 09:31N 40°40' W 074°03'0 0.0
2016-Aug-20 08:31N 40°40' W 074°03'0 0.0
2016-Aug-20 07:31N 40°40' W 074°03'0 0.0
2016-Aug-20 06:31N 40°40' W 074°03'0 0.0
2016-Aug-20 05:31N 40°40' W 074°03'0 0.2
2016-Aug-20 04:31N 40°40' W 074°03'0 0.1
2016-Aug-20 03:31N 40°40' W 074°02'0 0.0
2016-Aug-20 02:31N 40°40' W 074°03'0 0.0
2016-Aug-20 01:31N 40°40' W 074°03'0 0.0
2016-Aug-20 00:31N 40°40' W 074°02'0 0.1
2016-Aug-19 23:31N 40°40' W 074°03'0 0.2
2016-Aug-19 22:31N 40°40' W 074°03'0 0.1
2016-Aug-19 21:31N 40°40' W 074°03'0 0.0
2016-Aug-19 20:32N 40°40' W 074°03'6 1.4
2016-Aug-19 16:29N 40°38' W 074°10'6 6.3
2016-Aug-19 15:33N 40°40' W 074°02'0 0.1
2016-Aug-19 14:33N 40°40' W 074°02'0 0.0
2016-Aug-19 13:33N 40°40' W 074°02'0 0.1
2016-Aug-19 12:33N 40°40' W 074°02'0 0.0
2016-Aug-19 11:33N 40°40' W 074°02'0 0.1
2016-Aug-19 10:33N 40°40' W 074°02'0 0.1
2016-Aug-19 09:33N 40°40' W 074°03'0 0.0
2016-Aug-19 08:30N 40°40' W 074°03'0 0.0
2016-Aug-19 07:33N 40°40' W 074°03'0 0.0
2016-Aug-19 06:33N 40°40' W 074°03'0 0.0
2016-Aug-19 05:33N 40°40' W 074°03'0 0.0
2016-Aug-19 04:33N 40°40' W 074°03'0 0.2
2016-Aug-19 03:33N 40°40' W 074°03'0 0.1
2016-Aug-19 02:33N 40°40' W 074°02'0 0.0
2016-Aug-19 01:33N 40°40' W 074°03'0 0.0
2016-Aug-19 00:33N 40°40' W 074°02'0 0.0
2016-Aug-18 23:33N 40°40' W 074°02'0 0.1
2016-Aug-18 22:33N 40°40' W 074°03'0 0.2
2016-Aug-18 21:33N 40°40' W 074°03'0 0.0
2016-Aug-18 20:33N 40°40' W 074°03'3 3.4
2016-Aug-18 19:33N 40°39' W 074°07'0 0.0
2016-Aug-18 00:11N 40°39' W 074°07'2 0.5
2016-Aug-17 19:32N 40°39' W 074°10'2 2.1
2016-Aug-17 18:28N 40°39' W 074°07'2 0.3
2016-Aug-17 11:22N 40°39' W 074°10'0 0.0
2016-Aug-17 01:33N 40°38' W 074°09'5 5.4
2016-Aug-17 00:33N 40°39' W 074°02'0 0.1
2016-Aug-16 23:33N 40°39' W 074°02'0 0.0
2016-Aug-16 22:33N 40°39' W 074°02'0 0.0
2016-Aug-16 21:33N 40°39' W 074°02'0 0.0
2016-Aug-16 20:33N 40°39' W 074°02'0 0.1
2016-Aug-16 19:33N 40°39' W 074°02'0 0.2
2016-Aug-16 18:33N 40°39' W 074°02'0 0.0
2016-Aug-16 17:33N 40°39' W 074°02'  
Track history (hours):
 
Tides and Currents Weather Stations Pressure Air Temp Water Temp Dewpoint Dewpoint Depression Visibility Wind Speed Wind Dir Waves Ship Positions

Mckinley Sea

Owner: Kirby Offshore Marine, LLC, Staten Island, NY. More information available from US FCC via Universal Licensing System and Coast Guard Vessel Documentation Center.

Last reported at 2016-Aug-26 17:31 UTC. Time now 2016-Aug-28 02:19 UTC.
Position N 40°29' W 074°06'.

Length 41 m; draft 6 m.

Type: . MMSI: 367360980.

Date/timePositionNaut miles runAvg speedWind from/ knotsBaromVisibWave heightAir tempDewpointWater temp
2016-Aug-26 17:31N 40°29' W 074°06'5 5.5
2016-Aug-26 16:33N 40°34' W 074°02'2 1.8
2016-Aug-26 15:31N 40°35' W 074°01'0 0.0
2016-Aug-26 14:33N 40°35' W 074°01'0 0.0
2016-Aug-26 13:33N 40°35' W 074°01'0 0.0
2016-Aug-26 12:33N 40°35' W 074°01'0 0.0
2016-Aug-26 11:33N 40°35' W 074°01'0 0.0
2016-Aug-26 10:33N 40°35' W 074°01'0 0.2
2016-Aug-26 09:33N 40°35' W 074°01'3 3.2
2016-Aug-26 08:33N 40°38' W 074°03'0 0.0
2016-Aug-26 07:31N 40°38' W 074°03'0 0.0
2016-Aug-26 06:31N 40°38' W 074°03'0 0.0
2016-Aug-26 04:28N 40°38' W 074°03'0 0.1
2016-Aug-26 03:31N 40°38' W 074°03'0 0.1
2016-Aug-26 02:31N 40°38' W 074°03'0 0.0
2016-Aug-26 01:31N 40°38' W 074°03'0 0.0
2016-Aug-26 00:31N 40°38' W 074°03'0 0.1
2016-Aug-25 23:31N 40°38' W 074°03'0 0.0
2016-Aug-25 22:28N 40°38' W 074°03'0 0.1
2016-Aug-25 21:33N 40°38' W 074°03'0 0.1
2016-Aug-25 20:33N 40°38' W 074°03'0 0.0
2016-Aug-25 19:33N 40°38' W 074°03'0 0.0
2016-Aug-25 18:33N 40°38' W 074°03'0 0.0
2016-Aug-25 17:33N 40°38' W 074°03'0 0.0
2016-Aug-25 16:33N 40°38' W 074°03'0 0.0
2016-Aug-25 15:34N 40°38' W 074°03'0 0.0
2016-Aug-25 14:33N 40°38' W 074°03'2 2.0
2016-Aug-25 13:33N 40°36' W 074°03'0 0.1
2016-Aug-25 12:25N 40°37' W 074°03'0 0.0
2016-Aug-25 11:31N 40°37' W 074°03'0 0.0
2016-Aug-25 10:28N 40°37' W 074°03'0 0.0
2016-Aug-25 09:28N 40°37' W 074°03'0 0.0
2016-Aug-25 08:31N 40°37' W 074°03'0 0.2
2016-Aug-25 07:31N 40°37' W 074°03'0 0.0
2016-Aug-25 06:25N 40°37' W 074°03'0 0.0
2016-Aug-25 04:33N 40°37' W 074°03'0 0.0
2016-Aug-25 03:18N 40°37' W 074°03'0 0.2
2016-Aug-25 02:34N 40°37' W 074°03'0 0.1
2016-Aug-25 01:31N 40°37' W 074°03'0 0.0
2016-Aug-25 00:30N 40°37' W 074°03'0 0.0
2016-Aug-24 23:33N 40°37' W 074°03'0 0.0
2016-Aug-24 22:09N 40°37' W 074°03'0 0.1
2016-Aug-24 21:28N 40°37' W 074°03'0 0.1
2016-Aug-24 20:28N 40°37' W 074°03'0 0.1
2016-Aug-24 19:33N 40°37' W 074°03'0 0.0
2016-Aug-24 18:27N 40°37' W 074°03'0 0.0
2016-Aug-24 16:24N 40°37' W 074°03'0 0.0
2016-Aug-24 15:30N 40°37' W 074°03'0 0.1
2016-Aug-24 14:33N 40°37' W 074°03'0 0.2
2016-Aug-24 13:24N 40°37' W 074°03'0 0.1
2016-Aug-24 12:30N 40°37' W 074°03'0 0.0
2016-Aug-24 11:34N 40°37' W 074°03'0 0.0
2016-Aug-24 10:30N 40°37' W 074°03'0 0.0
2016-Aug-24 09:30N 40°37' W 074°03'0 0.1
2016-Aug-24 08:33N 40°37' W 074°03'1 1.2
2016-Aug-24 07:33N 40°38' W 074°03'2 2.2
2016-Aug-24 06:33N 40°40' W 074°02'0 0.0
2016-Aug-24 04:32N 40°40' W 074°02'0 0.0
2016-Aug-24 03:32N 40°40' W 074°02'0 0.1
2016-Aug-24 02:32N 40°40' W 074°03'0 0.2
2016-Aug-24 01:32N 40°40' W 074°03'0 0.1
2016-Aug-24 00:32N 40°40' W 074°03'0 0.0
2016-Aug-23 23:32N 40°40' W 074°03'0 0.0
2016-Aug-23 22:32N 40°40' W 074°03'0 0.0
2016-Aug-23 21:32N 40°40' W 074°03'5 4.7
2016-Aug-23 20:33N 40°39' W 074°09'1 0.3
2016-Aug-23 16:33N 40°39' W 074°07'4 3.6
2016-Aug-23 15:32N 40°40' W 074°02'0 0.1
2016-Aug-23 14:32N 40°40' W 074°02'0 0.1
2016-Aug-23 13:32N 40°40' W 074°03'0 0.0
2016-Aug-23 12:32N 40°40' W 074°03'0 0.0
2016-Aug-23 11:32N 40°40' W 074°03'0 0.0
2016-Aug-23 10:32N 40°40' W 074°03'0 0.0
2016-Aug-23 09:32N 40°40' W 074°03'0 0.0
2016-Aug-23 08:32N 40°40' W 074°03'0 0.0
2016-Aug-23 07:32N 40°40' W 074°03'0 0.1
2016-Aug-23 06:32N 40°40' W 074°02'0 0.1
2016-Aug-23 05:32N 40°40' W 074°02'0 0.0
2016-Aug-23 04:32N 40°40' W 074°02'0 0.0
2016-Aug-23 03:32N 40°40' W 074°02'0 0.2
2016-Aug-23 02:32N 40°40' W 074°02'0 0.1
2016-Aug-23 01:32N 40°40' W 074°02'0 0.0
2016-Aug-23 00:29N 40°40' W 074°03'0 0.0
2016-Aug-22 23:32N 40°40' W 074°03'0 0.0
2016-Aug-22 22:32N 40°40' W 074°03'0 0.0
2016-Aug-22 21:32N 40°40' W 074°03'0 0.0
2016-Aug-22 20:32N 40°40' W 074°03'0 0.0
2016-Aug-22 19:32N 40°40' W 074°03'0 0.0
2016-Aug-22 18:32N 40°40' W 074°03'0 0.0
2016-Aug-22 17:32N 40°40' W 074°02'0 0.1
2016-Aug-22 16:29N 40°40' W 074°02'0 0.1
2016-Aug-22 15:32N 40°40' W 074°02'0 0.0
2016-Aug-22 14:29N 40°40' W 074°03'0 0.0
2016-Aug-22 13:32N 40°40' W 074°02'0 0.0
2016-Aug-22 12:32N 40°40' W 074°02'0 0.1
2016-Aug-22 11:32N 40°40' W 074°03'0 0.0
2016-Aug-22 10:32N 40°40' W 074°03'0 0.0
2016-Aug-22 09:32N 40°40' W 074°03'0 0.0
2016-Aug-22 08:32N 40°40' W 074°03'0 0.0
2016-Aug-22 07:32N 40°40' W 074°03'0 0.0
2016-Aug-22 06:31N 40°40' W 074°02'0 0.1
2016-Aug-22 05:32N 40°40' W 074°02'0 0.1
2016-Aug-22 04:31N 40°40' W 074°02'0 0.0
2016-Aug-22 03:31N 40°40' W 074°02'0 0.0
2016-Aug-22 02:32N 40°40' W 074°02'0 0.0
2016-Aug-22 01:31N 40°40' W 074°03'0 0.0
2016-Aug-22 00:31N 40°40' W 074°03'0 0.0
2016-Aug-21 23:32N 40°40' W 074°03'0 0.1
2016-Aug-21 22:31N 40°40' W 074°03'0 0.1
2016-Aug-21 21:32N 40°40' W 074°03'0 0.1
2016-Aug-21 20:31N 40°40' W 074°03'0 0.1
2016-Aug-21 19:28N 40°40' W 074°03'0 0.1
2016-Aug-21 18:25N 40°40' W 074°03'0 0.0
2016-Aug-21 17:32N 40°40' W 074°03'0 0.1
2016-Aug-21 16:31N 40°40' W 074°03'0 0.0
2016-Aug-21 15:31N 40°40' W 074°03'0 0.0
2016-Aug-21 14:31N 40°40' W 074°03'0 0.0
2016-Aug-21 13:32N 40°40' W 074°03'0 0.1
2016-Aug-21 12:31N 40°40' W 074°03'0 0.1
2016-Aug-21 11:28N 40°40' W 074°03'0 0.1
2016-Aug-21 10:25N 40°40' W 074°03'0 0.0
2016-Aug-21 09:31N 40°40' W 074°03'0 0.0
2016-Aug-21 08:31N 40°40' W 074°03'0 0.0
2016-Aug-21 07:28N 40°40' W 074°03'0 0.1
2016-Aug-21 06:31N 40°40' W 074°03'0 0.1
2016-Aug-21 05:31N 40°40' W 074°03'0 0.1
2016-Aug-21 04:31N 40°40' W 074°03'0 0.0
2016-Aug-21 03:28N 40°40' W 074°03'0 0.0
2016-Aug-21 02:31N 40°40' W 074°03'0 0.0
2016-Aug-21 01:31N 40°40' W 074°03'0 0.0
2016-Aug-21 00:31N 40°40' W 074°03'0 0.0
2016-Aug-20 23:28N 40°40' W 074°03'0 0.0
2016-Aug-20 22:31N 40°40' W 074°03'0 0.1
2016-Aug-20 21:28N 40°40' W 074°03'0 0.1
2016-Aug-20 20:31N 40°40' W 074°03'0 0.0
2016-Aug-20 19:31N 40°40' W 074°03'0 0.0
2016-Aug-20 18:28N 40°40' W 074°03'0 0.1
2016-Aug-20 17:31N 40°40' W 074°03'0 0.1
2016-Aug-20 16:31N 40°40' W 074°03'0 0.0
2016-Aug-20 15:31N 40°40' W 074°02'0 0.0
2016-Aug-20 14:31N 40°40' W 074°03'0 0.0
2016-Aug-20 13:31N 40°40' W 074°02'0 0.1
2016-Aug-20 12:31N 40°40' W 074°03'0 0.1
2016-Aug-20 11:31N 40°40' W 074°03'0 0.1
2016-Aug-20 10:31N 40°40' W 074°03'0 0.0
2016-Aug-20 09:31N 40°40' W 074°03'0 0.0
2016-Aug-20 08:31N 40°40' W 074°03'0 0.0
2016-Aug-20 07:31N 40°40' W 074°03'0 0.0
2016-Aug-20 06:31N 40°40' W 074°03'0 0.0
2016-Aug-20 05:31N 40°40' W 074°03'0 0.2
2016-Aug-20 04:31N 40°40' W 074°03'0 0.1
2016-Aug-20 03:31N 40°40' W 074°02'0 0.0
2016-Aug-20 02:31N 40°40' W 074°03'0 0.0
2016-Aug-20 01:31N 40°40' W 074°03'0 0.0
2016-Aug-20 00:31N 40°40' W 074°02'0 0.1
2016-Aug-19 23:31N 40°40' W 074°03'0 0.2
2016-Aug-19 22:31N 40°40' W 074°03'0 0.1
2016-Aug-19 21:31N 40°40' W 074°03'0 0.0
2016-Aug-19 20:32N 40°40' W 074°03'6 1.4
2016-Aug-19 16:29N 40°38' W 074°10'6 6.3
2016-Aug-19 15:33N 40°40' W 074°02'0 0.1
2016-Aug-19 14:33N 40°40' W 074°02'0 0.0
2016-Aug-19 13:33N 40°40' W 074°02'0 0.1
2016-Aug-19 12:33N 40°40' W 074°02'0 0.0
2016-Aug-19 11:33N 40°40' W 074°02'0 0.1
2016-Aug-19 10:33N 40°40' W 074°02'0 0.1
2016-Aug-19 09:33N 40°40' W 074°03'0 0.0
2016-Aug-19 08:30N 40°40' W 074°03'0 0.0
2016-Aug-19 07:33N 40°40' W 074°03'0 0.0
2016-Aug-19 06:33N 40°40' W 074°03'0 0.0
2016-Aug-19 05:33N 40°40' W 074°03'0 0.0
2016-Aug-19 04:33N 40°40' W 074°03'0 0.2
2016-Aug-19 03:33N 40°40' W 074°03'0 0.1
2016-Aug-19 02:33N 40°40' W 074°02'0 0.0
2016-Aug-19 01:33N 40°40' W 074°03'0 0.0
2016-Aug-19 00:33N 40°40' W 074°02'0 0.0
2016-Aug-18 23:33N 40°40' W 074°02'0 0.1
2016-Aug-18 22:33N 40°40' W 074°03'0 0.2
2016-Aug-18 21:33N 40°40' W 074°03'0 0.0
2016-Aug-18 20:33N 40°40' W 074°03'3 3.4
2016-Aug-18 19:33N 40°39' W 074°07'0 0.0
2016-Aug-18 00:11N 40°39' W 074°07'2 0.5
2016-Aug-17 19:32N 40°39' W 074°10'2 2.1
2016-Aug-17 18:28N 40°39' W 074°07'2 0.3
2016-Aug-17 11:22N 40°39' W 074°10'0 0.0
2016-Aug-17 01:33N 40°38' W 074°09'5 5.4
2016-Aug-17 00:33N 40°39' W 074°02'0 0.1
2016-Aug-16 23:33N 40°39' W 074°02'0 0.0
2016-Aug-16 22:33N 40°39' W 074°02'0 0.0
2016-Aug-16 21:33N 40°39' W 074°02'0 0.0
2016-Aug-16 20:33N 40°39' W 074°02'0 0.1
2016-Aug-16 19:33N 40°39' W 074°02'0 0.2
2016-Aug-16 18:33N 40°39' W 074°02'0 0.0
2016-Aug-16 17:33N 40°39' W 074°02'  

Dump ship's entire track history